Time;durP1;ratioP1;P1;durP2;ratioP2;P2;SDS_P1;SDS_P2;PMS_P1;PMS_P2;Temp;Humidity;BMP_temperature;BMP_pressure;BME280_temperature;BME280_humidity;BME280_pressure;Samples;Min_cycle;Max_cycle;Signal;HPM_P1;HPM_P2
2022/01/22 00:00:43;;;;;;;11.48;2.97;;;6.20;99.90;;;;;;5032230;28;20453;-81
2022/01/22 00:03:09;;;;;;;18.08;2.47;;;6.20;99.90;;;;;;4997610;28;20085;-80
2022/01/22 00:05:35;;;;;;;18.17;2.65;;;6.10;99.90;;;;;;5015757;28;20042;-80
2022/01/22 00:08:01;;;;;;;7.97;1.10;;;6.20;99.90;;;;;;5032366;28;20037;-80
2022/01/22 00:10:26;;;;;;;14.20;2.97;;;6.20;99.90;;;;;;4997394;28;20488;-80
2022/01/22 00:14:23;;;;;;;18.08;2.10;;;6.20;99.90;;;;;;5015472;28;20492;-80
2022/01/22 00:15:42;;;;;;;24.38;2.63;;;6.20;99.90;;;;;;5019392;28;20050;-80
2022/01/22 00:18:08;;;;;;;9.25;2.00;;;6.20;99.90;;;;;;4998768;28;20407;-81
2022/01/22 00:20:36;;;;;;;11.95;1.75;;;6.20;99.90;;;;;;5032986;28;20503;-81
2022/01/22 00:23:03;;;;;;;17.45;1.58;;;6.20;99.90;;;;;;5032955;28;20061;-81
2022/01/22 00:25:29;;;;;;;18.45;2.42;;;6.20;99.90;;;;;;5016108;28;20470;-81
2022/01/22 00:27:55;;;;;;;22.70;1.98;;;6.20;99.90;;;;;;5016223;28;20084;-81
2022/01/22 00:30:23;;;;;;;14.27;1.92;;;6.20;99.90;;;;;;5015810;28;20081;-81
2022/01/22 00:32:50;;;;;;;13.88;2.03;;;6.20;99.90;;;;;;5032528;28;20046;-81
2022/01/22 00:35:17;;;;;;;14.48;1.50;;;6.20;99.90;;;;;;5032343;28;20057;-81
2022/01/22 00:37:47;;;;;;;12.80;2.20;;;6.20;99.90;;;;;;5032330;28;20041;-80
2022/01/22 00:40:14;;;;;;;13.15;1.52;;;6.30;99.90;;;;;;5032437;28;20045;-81
2022/01/22 00:42:41;;;;;;;17.27;1.73;;;6.20;99.90;;;;;;5016412;28;20562;-81
2022/01/22 00:45:08;;;;;;;17.33;1.92;;;6.20;99.90;;;;;;5015805;28;20052;-80
2022/01/22 00:47:33;;;;;;;19.45;2.17;;;6.20;99.90;;;;;;5016094;28;20403;-81
2022/01/22 00:49:59;;;;;;;20.35;2.50;;;6.20;99.90;;;;;;5032353;28;20037;-81
2022/01/22 00:52:25;;;;;;;13.48;1.88;;;6.20;99.90;;;;;;5016007;28;20046;-81
2022/01/22 00:54:51;;;;;;;17.70;2.85;;;6.20;99.90;;;;;;5015645;28;20410;-81
2022/01/22 00:57:16;;;;;;;18.17;1.42;;;6.20;99.90;;;;;;5015840;28;20053;-80
2022/01/22 00:59:42;;;;;;;8.00;1.70;;;6.20;99.90;;;;;;5015911;28;20076;-80
2022/01/22 01:02:08;;;;;;;11.18;1.10;;;6.20;99.90;;;;;;5015852;28;20052;-80
2022/01/22 01:04:35;;;;;;;12.57;1.60;;;6.20;99.90;;;;;;5031939;28;20052;-81
2022/01/22 01:07:02;;;;;;;9.23;1.65;;;6.20;99.90;;;;;;4999488;28;20041;-81
2022/01/22 01:09:28;;;;;;;11.68;3.42;;;6.20;99.90;;;;;;5032131;28;20046;-80
2022/01/22 01:11:59;;;;;;;6.38;1.08;;;6.20;99.90;;;;;;5015579;28;20044;-81
2022/01/22 01:14:32;;;;;;;14.43;1.30;;;6.20;99.90;;;;;;5032092;28;20395;-80
2022/01/22 01:33:22;;;;;;;11.02;1.17;;;6.20;99.90;;;;;;5031505;28;20056;-80
2022/01/22 01:35:48;;;;;;;12.85;1.15;;;6.10;99.90;;;;;;5031609;28;20081;-81
2022/01/22 01:38:14;;;;;;;9.85;1.02;;;6.10;99.90;;;;;;5015176;28;20565;-79
2022/01/22 01:40:43;;;;;;;13.30;1.20;;;6.00;99.90;;;;;;5015013;28;20053;-80
2022/01/22 01:43:33;;;;;;;10.85;1.55;;;6.00;99.90;;;;;;5015320;28;20530;-81
2022/01/22 01:45:58;;;;;;;6.53;0.80;;;6.20;99.90;;;;;;5031526;28;20399;-80
2022/01/22 01:48:29;;;;;;;6.60;1.42;;;6.00;99.90;;;;;;5015178;28;20053;-79
2022/01/22 01:50:57;;;;;;;7.35;1.58;;;6.00;99.90;;;;;;5015098;28;20045;-79
2022/01/22 01:59:02;;;;;;;11.65;0.95;;;5.90;99.90;;;;;;5017513;28;20073;-79
2022/01/22 02:01:27;;;;;;;18.70;2.05;;;5.90;99.90;;;;;;5014982;28;20045;-81
2022/01/22 02:03:53;;;;;;;18.67;1.45;;;5.90;99.90;;;;;;5015239;28;20072;-79
2022/01/22 02:06:19;;;;;;;8.90;1.00;;;5.90;99.90;;;;;;5015303;28;20042;-81
2022/01/22 02:08:45;;;;;;;5.97;0.98;;;6.00;99.90;;;;;;5015268;28;20054;-80
2022/01/22 02:11:13;;;;;;;12.20;1.42;;;5.90;99.90;;;;;;5015174;28;20042;-81
2022/01/22 02:24:45;;;;;;;9.98;1.05;;;6.00;99.90;;;;;;5031112;28;20068;-81
2022/01/22 02:27:11;;;;;;;10.10;1.80;;;5.90;99.90;;;;;;5014871;28;20049;-79
2022/01/22 02:29:37;;;;;;;4.60;0.50;;;5.90;99.90;;;;;;5014821;28;20048;-79
2022/01/22 02:34:56;;;;;;;11.75;1.38;;;6.00;99.90;;;;;;5016690;28;20054;-80
2022/01/22 02:37:24;;;;;;;10.10;1.42;;;6.00;99.90;;;;;;5014498;28;20046;-79
2022/01/22 02:40:05;;;;;;;5.32;0.82;;;5.90;99.90;;;;;;5015077;28;20372;-80
2022/01/22 02:42:34;;;;;;;6.07;0.57;;;6.00;99.90;;;;;;5030925;28;20041;-81
2022/01/22 02:45:06;;;;;;;5.20;0.60;;;6.00;99.90;;;;;;5015225;28;20381;-79
2022/01/22 02:47:32;;;;;;;8.75;0.80;;;5.90;99.90;;;;;;5015554;28;20046;-79
2022/01/22 02:49:58;;;;;;;7.88;0.73;;;5.90;99.90;;;;;;5014324;28;20590;-81
2022/01/22 02:52:24;;;;;;;7.82;0.73;;;5.90;99.90;;;;;;5031212;28;20087;-79
2022/01/22 02:54:50;;;;;;;4.90;0.40;;;5.60;99.90;;;;;;5017643;28;20117;-79
2022/01/22 02:57:16;;;;;;;7.22;0.45;;;5.60;99.90;;;;;;5034359;28;20045;-79
2022/01/22 02:59:42;;;;;;;12.35;1.33;;;5.60;99.90;;;;;;5017807;28;20050;-80
2022/01/22 03:02:14;;;;;;;13.07;2.08;;;5.70;99.90;;;;;;5017734;28;20065;-79
2022/01/22 03:04:41;;;;;;;9.40;1.08;;;5.70;99.90;;;;;;5034453;28;20566;-79
2022/01/22 03:07:07;;;;;;;4.82;0.50;;;5.70;99.90;;;;;;5034561;28;20132;-80
2022/01/22 03:09:40;;;;;;;8.88;0.68;;;5.80;99.90;;;;;;5017983;28;20499;-81
2022/01/22 03:27:44;;;;;;;3.10;0.43;;;5.80;99.90;;;;;;5020061;28;20140;-78
2022/01/22 03:30:10;;;;;;;4.40;0.47;;;5.90;99.90;;;;;;5000996;28;20132;-80
2022/01/22 03:32:43;;;;;;;4.63;0.50;;;5.90;99.90;;;;;;5034012;28;20076;-80
2022/01/22 03:35:25;;;;;;;7.95;1.20;;;5.90;99.90;;;;;;5033729;28;20140;-80
2022/01/22 03:37:53;;;;;;;9.75;1.15;;;5.80;99.90;;;;;;5033620;28;20056;-81
2022/01/22 03:40:26;;;;;;;11.88;1.00;;;6.00;99.90;;;;;;5016976;28;20045;-79
2022/01/22 03:42:53;;;;;;;7.68;1.08;;;5.90;99.90;;;;;;5033528;28;20042;-80
2022/01/22 03:45:20;;;;;;;7.47;0.90;;;5.90;99.90;;;;;;5033381;28;20050;-80
2022/01/22 03:47:46;;;;;;;12.05;1.23;;;5.90;99.90;;;;;;5033511;28;20099;-81
2022/01/22 03:50:14;;;;;;;10.30;1.10;;;5.90;99.90;;;;;;5033294;28;20081;-79
2022/01/22 03:52:40;;;;;;;14.00;1.50;;;5.90;99.90;;;;;;5017136;28;20045;-78
2022/01/22 03:55:11;;;;;;;8.05;0.93;;;5.90;99.90;;;;;;5016788;28;20045;-78
2022/01/22 03:57:37;;;;;;;11.55;0.88;;;5.80;99.90;;;;;;5033286;28;20049;-80
2022/01/22 04:00:05;;;;;;;8.85;1.10;;;5.90;99.90;;;;;;5033408;28;20550;-78
2022/01/22 04:05:01;;;;;;;5.35;0.55;;;5.80;99.90;;;;;;5015878;28;20419;-78
2022/01/22 04:09:57;;;;;;;2.53;0.35;;;5.90;99.90;;;;;;5033050;28;20045;-80
2022/01/22 04:12:32;;;;;;;4.18;0.43;;;6.00;99.90;;;;;;5017430;28;20503;-78
2022/01/22 04:15:02;;;;;;;5.32;0.40;;;5.90;99.90;;;;;;5001409;28;20045;-78
2022/01/22 04:25:28;;;;;;;7.78;0.55;;;5.80;99.90;;;;;;5032575;28;20135;-79
2022/01/22 04:27:54;;;;;;;3.92;0.43;;;5.80;99.90;;;;;;5032746;28;20049;-78
2022/01/22 04:30:21;;;;;;;12.07;0.70;;;5.90;99.90;;;;;;5016748;28;20395;-81
2022/01/22 04:32:49;;;;;;;9.07;0.82;;;5.90;99.90;;;;;;5000528;28;20076;-78
2022/01/22 04:35:19;;;;;;;6.45;0.60;;;5.90;99.90;;;;;;5032365;28;20059;-78
2022/01/22 04:37:49;;;;;;;13.32;1.08;;;5.90;99.90;;;;;;5015923;28;20046;-78
2022/01/22 04:40:15;;;;;;;9.27;1.20;;;5.80;99.90;;;;;;5032640;28;20487;-79
2022/01/22 04:42:42;;;;;;;15.75;2.90;;;5.80;99.90;;;;;;5015997;28;20038;-80
2022/01/22 04:45:40;;;;;;;11.07;0.95;;;5.80;99.90;;;;;;4999554;28;20081;-78
2022/01/22 04:56:18;;;;;;;8.82;1.00;;;5.50;99.90;;;;;;5018402;28;20056;-80
2022/01/22 04:58:44;;;;;;;15.05;1.25;;;5.60;99.90;;;;;;4999299;28;20046;-79
2022/01/22 05:01:10;;;;;;;9.23;1.05;;;5.60;99.90;;;;;;5032313;28;20124;-78
2022/01/22 05:03:36;;;;;;;6.03;1.10;;;5.60;99.90;;;;;;5015864;28;20057;-80
2022/01/22 05:06:06;;;;;;;7.55;0.82;;;5.60;99.90;;;;;;5015648;28;20113;-80
2022/01/22 05:08:32;;;;;;;6.35;1.10;;;5.60;99.90;;;;;;5032207;28;20049;-78
2022/01/22 05:10:57;;;;;;;6.05;0.63;;;5.60;99.90;;;;;;5032008;28;20052;-80
2022/01/22 05:13:23;;;;;;;7.78;0.75;;;5.70;99.90;;;;;;5032169;28;20044;-78
2022/01/22 05:15:49;;;;;;;5.82;1.15;;;5.70;99.90;;;;;;4999138;28;20049;-78
2022/01/22 05:18:15;;;;;;;11.20;0.85;;;5.60;99.90;;;;;;5014570;28;20072;-80
2022/01/22 05:20:51;;;;;;;6.85;0.60;;;5.60;99.90;;;;;;5015227;28;20052;-80
2022/01/22 05:23:21;;;;;;;10.10;1.10;;;5.50;99.90;;;;;;5031793;28;20053;-78
2022/01/22 05:25:57;;;;;;;6.55;0.82;;;5.80;99.90;;;;;;5031828;28;20072;-78
2022/01/22 05:39:21;;;;;;;8.18;0.95;;;5.70;99.90;;;;;;5031773;28;20492;-80
2022/01/22 05:41:47;;;;;;;7.28;1.02;;;5.80;99.90;;;;;;5015584;28;20049;-80
2022/01/22 05:44:13;;;;;;;20.40;1.77;;;5.70;99.90;;;;;;5031746;28;20091;-80
2022/01/22 05:46:39;;;;;;;16.83;1.55;;;5.80;99.90;;;;;;5031450;28;20377;-80
2022/01/22 05:49:06;;;;;;;11.52;2.13;;;5.90;99.90;;;;;;5031400;28;20049;-80
2022/01/22 05:51:32;;;;;;;16.63;1.80;;;5.70;99.90;;;;;;5031212;28;20041;-78
2022/01/22 05:59:37;;;;;;;9.15;1.38;;;5.80;99.90;;;;;;5017730;28;20407;-80
2022/01/22 06:02:08;;;;;;;5.38;1.02;;;5.80;99.90;;;;;;5031368;28;20049;-80
2022/01/22 06:04:34;;;;;;;6.85;1.10;;;5.80;99.90;;;;;;5031517;28;20447;-81
2022/01/22 06:07:01;;;;;;;7.63;1.17;;;5.80;99.90;;;;;;5031524;28;20132;-78
2022/01/22 06:09:28;;;;;;;7.22;1.13;;;5.90;99.90;;;;;;5031287;28;20100;-80
2022/01/22 06:14:22;;;;;;;5.65;1.20;;;5.70;99.90;;;;;;5031144;28;20058;-78
2022/01/22 06:16:49;;;;;;;3.58;0.65;;;5.90;99.90;;;;;;5031620;28;20050;-79
2022/01/22 06:19:15;;;;;;;10.63;1.15;;;5.80;99.90;;;;;;5031293;28;20045;-78
2022/01/22 06:21:41;;;;;;;13.85;2.58;;;5.80;99.90;;;;;;5031267;28;20045;-78
2022/01/22 06:24:07;;;;;;;5.28;1.10;;;5.80;99.90;;;;;;5014757;28;20045;-79
2022/01/22 06:26:35;;;;;;;10.60;1.13;;;5.80;99.90;;;;;;5031076;28;20049;-78
2022/01/22 06:29:03;;;;;;;8.88;0.98;;;5.80;99.90;;;;;;5032904;28;20129;-78
2022/01/22 06:31:28;;;;;;;3.65;0.73;;;5.80;99.90;;;;;;5034939;28;20042;-80
2022/01/22 06:33:54;;;;;;;6.53;0.65;;;5.70;99.90;;;;;;5001712;28;20061;-81
2022/01/22 06:36:20;;;;;;;9.38;1.35;;;5.70;99.90;;;;;;5018509;28;20096;-78
2022/01/22 06:38:45;;;;;;;14.50;1.30;;;5.80;99.90;;;;;;5018189;28;20380;-78
2022/01/22 06:44:19;;;;;;;6.75;1.05;;;5.70;99.90;;;;;;4978223;28;20140;-79
2022/01/22 06:46:47;;;;;;;9.55;1.25;;;5.70;99.90;;;;;;4978047;28;20153;-78
2022/01/22 06:49:13;;;;;;;16.05;1.83;;;5.60;99.90;;;;;;5004971;28;20054;-80
2022/01/22 06:51:40;;;;;;;14.02;1.75;;;5.60;99.90;;;;;;5001877;28;20041;-80
2022/01/22 06:54:07;;;;;;;4.28;1.10;;;5.60;99.90;;;;;;5017950;28;20053;-79
2022/01/22 06:56:33;;;;;;;3.80;0.65;;;5.60;99.90;;;;;;5018358;28;20132;-79
2022/01/22 06:59:00;;;;;;;5.28;0.80;;;5.60;99.90;;;;;;5017980;28;20103;-78
2022/01/22 07:01:27;;;;;;;7.93;1.40;;;5.60;99.90;;;;;;5034199;28;20050;-78
2022/01/22 07:03:53;;;;;;;7.82;1.15;;;5.60;99.90;;;;;;5034285;28;20095;-78
2022/01/22 07:06:19;;;;;;;12.60;1.38;;;5.60;99.90;;;;;;5034308;28;20034;-78
2022/01/22 07:08:45;;;;;;;5.85;0.68;;;5.50;99.90;;;;;;5034185;28;20084;-79
2022/01/22 07:11:11;;;;;;;2.63;0.50;;;5.50;99.90;;;;;;5017893;28;20069;-81
2022/01/22 07:13:37;;;;;;;4.78;0.70;;;5.60;99.90;;;;;;5017645;28;20045;-80
2022/01/22 07:16:04;;;;;;;5.13;0.60;;;5.60;99.90;;;;;;5001631;28;20045;-78
2022/01/22 07:18:30;;;;;;;6.18;0.98;;;5.50;99.90;;;;;;5001167;28;20106;-80
2022/01/22 07:20:56;;;;;;;7.60;1.00;;;5.60;99.90;;;;;;5017524;28;20044;-78
2022/01/22 07:25:57;;;;;;;6.35;1.70;;;5.50;99.90;;;;;;5034212;28;20585;-80
2022/01/22 07:28:23;;;;;;;8.00;1.27;;;5.50;99.90;;;;;;5017409;28;20331;-80
2022/01/22 07:30:48;;;;;;;6.90;1.40;;;5.50;99.90;;;;;;5017479;28;20041;-78
2022/01/22 07:33:15;;;;;;;4.28;1.08;;;5.40;99.90;;;;;;5017321;28;20042;-78
2022/01/22 07:35:41;;;;;;;1.15;0.47;;;5.40;99.90;;;;;;5017194;28;20128;-80
2022/01/22 07:38:09;;;;;;;8.00;1.05;;;5.60;99.90;;;;;;5033685;28;20614;-78
2022/01/22 07:40:35;;;;;;;7.95;1.23;;;5.40;99.90;;;;;;5032619;28;20180;-81
2022/01/22 07:43:01;;;;;;;4.18;1.35;;;5.40;99.90;;;;;;5017361;28;20420;-80
2022/01/22 07:45:27;;;;;;;4.68;0.63;;;5.50;99.90;;;;;;5016898;28;20052;-78
2022/01/22 07:47:53;;;;;;;4.50;0.68;;;5.30;99.90;;;;;;5000783;28;20464;-80
2022/01/22 07:50:19;;;;;;;5.70;0.30;;;5.30;99.90;;;;;;5033576;28;20100;-78
2022/01/22 07:52:45;;;;;;;10.90;0.63;;;5.30;99.90;;;;;;5033732;28;20044;-78
2022/01/22 07:55:11;;;;;;;6.00;0.63;;;5.40;99.90;;;;;;5033602;28;20052;-78
2022/01/22 07:57:36;;;;;;;4.60;1.08;;;5.30;99.90;;;;;;5033175;28;20063;-78
2022/01/22 08:00:05;;;;;;;5.05;0.60;;;5.30;99.90;;;;;;5016827;28;20136;-78
2022/01/22 08:02:31;;;;;;;6.18;0.60;;;5.30;99.90;;;;;;5033004;28;20045;-78
2022/01/22 08:04:56;;;;;;;9.65;0.68;;;5.30;99.90;;;;;;5016833;28;20045;-78
2022/01/22 08:07:22;;;;;;;3.83;0.40;;;5.30;99.90;;;;;;5000278;28;20128;-78
2022/01/22 08:09:50;;;;;;;8.93;0.40;;;5.40;99.90;;;;;;5016613;28;20057;-78
2022/01/22 08:12:17;;;;;;;2.33;0.47;;;5.30;99.90;;;;;;5000600;28;20132;-80
2022/01/22 08:14:43;;;;;;;8.77;1.00;;;5.30;99.90;;;;;;5032865;28;20056;-81
2022/01/22 08:17:09;;;;;;;9.52;1.60;;;5.40;99.90;;;;;;5032823;28;20041;-80
2022/01/22 08:19:34;;;;;;;7.68;0.82;;;5.40;99.90;;;;;;5032805;28;20056;-80
2022/01/22 08:22:00;;;;;;;9.30;0.95;;;5.30;99.90;;;;;;5033069;28;20037;-79
2022/01/22 08:24:27;;;;;;;11.27;1.33;;;5.40;99.90;;;;;;5016244;28;20055;-78
2022/01/22 08:27:22;;;;;;;6.93;1.00;;;5.40;99.90;;;;;;5000527;28;20068;-78
2022/01/22 08:29:41;;;;;;;11.68;1.00;;;5.30;99.90;;;;;;5032053;28;20057;-80
2022/01/22 08:32:31;;;;;;;9.55;1.50;;;5.40;99.90;;;;;;5032876;28;20041;-80
2022/01/22 08:37:39;;;;;;;16.38;1.58;;;5.50;99.90;;;;;;5032410;28;20061;-78
2022/01/22 08:40:07;;;;;;;11.80;1.75;;;5.40;99.90;;;;;;5016254;28;20132;-79
2022/01/22 08:42:33;;;;;;;10.88;1.02;;;5.20;99.90;;;;;;5031395;28;20128;-78
2022/01/22 08:44:58;;;;;;;20.15;3.38;;;5.50;99.90;;;;;;5015644;28;20120;-78
2022/01/22 08:47:24;;;;;;;20.08;2.72;;;5.40;99.90;;;;;;5011310;28;20419;-78
2022/01/22 08:49:50;;;;;;;16.73;2.00;;;5.50;99.90;;;;;;5010070;28;20459;-80
2022/01/22 08:52:17;;;;;;;11.07;1.30;;;5.40;99.90;;;;;;5031788;28;20079;-80
2022/01/22 08:54:44;;;;;;;16.38;1.85;;;5.50;99.90;;;;;;5031605;28;20052;-80
2022/01/22 08:57:11;;;;;;;11.38;2.25;;;5.50;99.90;;;;;;5015362;28;20067;-78
2022/01/22 08:59:37;;;;;;;13.90;2.10;;;5.40;99.90;;;;;;5031413;28;20136;-80
2022/01/22 09:02:03;;;;;;;10.88;1.95;;;5.50;99.90;;;;;;5015177;28;20121;-78
2022/01/22 09:04:31;;;;;;;18.55;2.38;;;5.50;99.90;;;;;;5031725;28;20088;-78
2022/01/22 09:06:57;;;;;;;14.43;2.67;;;5.50;99.90;;;;;;5015226;28;20057;-80
2022/01/22 09:09:23;;;;;;;11.32;1.90;;;5.60;99.90;;;;;;5031854;28;20099;-77
2022/01/22 09:11:49;;;;;;;11.73;1.58;;;5.60;99.90;;;;;;5031622;28;20104;-79
2022/01/22 09:14:17;;;;;;;13.25;4.20;;;5.50;99.90;;;;;;5032506;28;20042;-79
2022/01/22 09:16:44;;;;;;;14.05;1.92;;;5.60;99.90;;;;;;5014885;28;20496;-80
2022/01/22 09:19:11;;;;;;;17.52;2.88;;;5.60;99.90;;;;;;5031371;28;20136;-78
2022/01/22 09:21:43;;;;;;;18.80;3.05;;;5.50;99.90;;;;;;5031193;28;20091;-78
2022/01/22 09:24:10;;;;;;;15.68;2.38;;;5.60;99.90;;;;;;4998659;28;20037;-78
2022/01/22 09:26:36;;;;;;;18.40;2.78;;;5.60;99.90;;;;;;5015038;28;20045;-80
2022/01/22 09:29:03;;;;;;;17.10;3.45;;;5.80;99.90;;;;;;5014933;28;20487;-80
2022/01/22 09:31:30;;;;;;;20.92;2.30;;;5.70;99.90;;;;;;5015006;28;20504;-78
2022/01/22 09:33:58;;;;;;;16.52;2.67;;;5.70;99.90;;;;;;5031399;28;20419;-78
2022/01/22 09:36:25;;;;;;;19.05;2.45;;;5.80;99.90;;;;;;5030604;28;20128;-80
2022/01/22 09:38:52;;;;;;;14.68;2.22;;;5.90;99.90;;;;;;5031391;28;20053;-80
2022/01/22 09:41:19;;;;;;;16.25;1.95;;;5.90;99.90;;;;;;5014606;28;20041;-78
2022/01/22 09:43:45;;;;;;;10.00;1.90;;;5.70;99.90;;;;;;5031137;28;20045;-80
2022/01/22 09:46:11;;;;;;;14.00;1.67;;;5.80;99.90;;;;;;5030793;28;20124;-78
2022/01/22 09:48:42;;;;;;;15.82;3.63;;;5.90;99.90;;;;;;5030830;28;20129;-79
2022/01/22 09:51:08;;;;;;;15.23;2.22;;;5.90;99.90;;;;;;5014600;28;20045;-78
2022/01/22 09:53:35;;;;;;;16.60;3.03;;;5.90;99.90;;;;;;5030896;28;20447;-78
2022/01/22 09:56:01;;;;;;;10.50;1.60;;;5.90;99.90;;;;;;5030706;28;20045;-79
2022/01/22 09:58:26;;;;;;;22.00;2.22;;;6.00;99.90;;;;;;5014281;28;20060;-78
2022/01/22 10:00:52;;;;;;;13.13;3.25;;;5.80;99.90;;;;;;5014741;28;20514;-78
2022/01/22 10:03:20;;;;;;;13.00;1.90;;;6.00;99.90;;;;;;5030773;28;20491;-80
2022/01/22 10:05:47;;;;;;;13.82;2.08;;;5.90;99.90;;;;;;5034554;28;20104;-80
2022/01/22 10:08:32;;;;;;;12.65;1.85;;;5.90;99.90;;;;;;5034179;28;20048;-78
2022/01/22 10:11:00;;;;;;;19.13;3.28;;;5.80;99.90;;;;;;5018481;28;20049;-80
2022/01/22 10:13:47;;;;;;;17.80;2.17;;;6.00;99.90;;;;;;5029047;28;20549;-80
2022/01/22 10:16:22;;;;;;;13.32;2.25;;;5.80;99.90;;;;;;5034476;28;20045;-80
2022/01/22 10:19:24;;;;;;;13.65;1.73;;;6.00;99.90;;;;;;5017508;28;20049;-79
2022/01/22 10:21:58;;;;;;;16.85;3.30;;;5.90;99.90;;;;;;5034547;28;20081;-80
2022/01/22 10:24:44;;;;;;;18.23;2.25;;;6.00;99.90;;;;;;5034628;28;20046;-80
2022/01/22 10:29:54;;;;;;;14.40;2.35;;;5.90;99.90;;;;;;5034624;28;20050;-78
2022/01/22 10:32:35;;;;;;;21.45;2.42;;;5.90;99.90;;;;;;5017571;28;20084;-80
2022/01/22 10:35:10;;;;;;;14.55;2.67;;;6.10;99.90;;;;;;5016977;28;20057;-81
2022/01/22 10:37:36;;;;;;;13.18;2.10;;;6.00;99.90;;;;;;5034767;28;20046;-80
2022/01/22 10:40:19;;;;;;;14.55;2.10;;;5.90;99.90;;;;;;5017350;28;20094;-78
2022/01/22 10:42:44;;;;;;;21.85;2.65;;;5.80;99.90;;;;;;5018001;28;20053;-80
2022/01/22 10:45:14;;;;;;;16.13;2.88;;;5.90;99.90;;;;;;5033561;28;20041;-81
2022/01/22 10:47:40;;;;;;;15.82;2.08;;;5.90;99.90;;;;;;5033965;28;20392;-80
2022/01/22 10:50:16;;;;;;;16.45;2.20;;;5.90;99.90;;;;;;5034083;28;20049;-78
2022/01/22 10:52:50;;;;;;;22.80;2.60;;;6.10;99.90;;;;;;4998573;28;20523;-80
2022/01/22 10:55:17;;;;;;;14.82;2.50;;;5.90;99.90;;;;;;5032584;28;20558;-78
2022/01/22 10:58:04;;;;;;;16.50;2.50;;;6.10;99.90;;;;;;5034310;28;20166;-78
2022/01/22 11:00:30;;;;;;;22.65;2.90;;;6.10;99.90;;;;;;5017024;28;20041;-80
2022/01/22 11:02:56;;;;;;;13.05;2.10;;;5.90;99.90;;;;;;5016806;28;20072;-78
2022/01/22 11:05:37;;;;;;;12.60;2.58;;;6.10;99.90;;;;;;5016897;28;20076;-80
2022/01/22 11:08:14;;;;;;;18.23;2.90;;;6.00;99.90;;;;;;5017156;28;20500;-80
2022/01/22 11:10:45;;;;;;;15.57;4.22;;;6.10;99.90;;;;;;5017016;28;20041;-78
2022/01/22 11:13:11;;;;;;;29.70;4.20;;;6.00;99.90;;;;;;5016574;28;20080;-80
2022/01/22 11:15:39;;;;;;;13.63;2.53;;;6.20;99.90;;;;;;5017390;28;20129;-79
2022/01/22 11:18:06;;;;;;;12.38;2.83;;;6.10;99.90;;;;;;5034069;28;20056;-80
2022/01/22 11:20:32;;;;;;;18.90;3.40;;;6.20;99.90;;;;;;5033792;28;20045;-80
2022/01/22 11:22:58;;;;;;;16.85;3.03;;;6.00;99.90;;;;;;5017502;28;20085;-78
2022/01/22 11:25:25;;;;;;;18.73;3.90;;;6.10;99.90;;;;;;5017648;28;20373;-78
2022/01/22 11:27:51;;;;;;;14.15;3.22;;;6.00;99.90;;;;;;5033797;28;20142;-80
2022/01/22 11:30:18;;;;;;;21.42;3.75;;;6.10;99.90;;;;;;5033922;28;20537;-80
2022/01/22 11:33:03;;;;;;;16.02;3.20;;;6.00;99.90;;;;;;5033699;28;20045;-80
2022/01/22 11:36:13;;;;;;;11.98;3.20;;;6.00;99.90;;;;;;5033603;28;20053;-78
2022/01/22 11:38:47;;;;;;;15.55;4.10;;;6.00;99.90;;;;;;5022177;28;20057;-78
2022/01/22 11:41:15;;;;;;;;;;;6.00;99.90;;;;;;5017849;28;20052;-78
2022/01/22 11:43:50;;;;;;;16.30;3.40;;;5.90;99.90;;;;;;5017332;28;20315;-78
2022/01/22 11:46:26;;;;;;;18.20;3.42;;;6.00;99.90;;;;;;5033650;28;20045;-78
2022/01/22 11:49:16;;;;;;;18.20;4.95;;;5.90;99.90;;;;;;5033595;28;20195;-78
2022/01/22 11:51:45;;;;;;;14.25;4.05;;;6.10;99.90;;;;;;5017115;28;20052;-80
2022/01/22 11:54:12;;;;;;;12.55;4.45;;;6.20;99.90;;;;;;5016870;28;20049;-80
2022/01/22 11:56:42;;;;;;;15.48;4.28;;;6.10;99.90;;;;;;5017299;28;20597;-79
2022/01/22 11:59:24;;;;;;;18.40;3.85;;;6.00;99.90;;;;;;5017052;28;20400;-78
2022/01/22 12:01:53;;;;;;;13.57;4.80;;;6.10;99.90;;;;;;5017042;28;20172;-79
2022/01/22 12:04:21;;;;;;;11.77;3.20;;;6.10;99.90;;;;;;5033074;28;20048;-78
2022/01/22 12:07:02;;;;;;;18.42;4.05;;;6.00;99.90;;;;;;5017221;28;20057;-78
2022/01/22 12:09:36;;;;;;;10.40;3.40;;;5.90;99.90;;;;;;5016650;28;20080;-78
2022/01/22 12:15:44;;;;;;;24.20;4.50;;;6.10;99.90;;;;;;5032865;28;20080;-80
2022/01/22 12:18:14;;;;;;;12.23;2.60;;;6.10;99.90;;;;;;5032652;28;20085;-78
2022/01/22 12:23:30;;;;;;;18.52;3.45;;;6.10;99.90;;;;;;5033030;28;20049;-80
2022/01/22 12:25:59;;;;;;;15.47;3.87;;;6.10;99.90;;;;;;5015488;28;20045;-80
2022/01/22 12:28:37;;;;;;;17.05;3.97;;;6.00;99.90;;;;;;5032455;28;20051;-80
2022/01/22 12:31:05;;;;;;;20.30;4.47;;;5.90;99.90;;;;;;5032684;28;20049;-80
2022/01/22 12:33:31;;;;;;;10.50;2.70;;;6.00;99.90;;;;;;5032512;28;20046;-79
2022/01/22 12:35:59;;;;;;;13.32;2.47;;;5.90;99.90;;;;;;5015993;28;20079;-79
2022/01/22 12:38:36;;;;;;;10.45;2.13;;;6.00;99.90;;;;;;5032355;28;20053;-78
2022/01/22 12:41:24;;;;;;;10.38;1.80;;;5.80;99.90;;;;;;5032686;28;20484;-79
2022/01/22 12:43:50;;;;;;;25.25;1.73;;;5.70;99.90;;;;;;5032365;28;20099;-79
2022/01/22 12:46:16;;;;;;;11.90;1.98;;;5.70;99.90;;;;;;5016040;28;20045;-80
2022/01/22 12:48:49;;;;;;;9.80;2.30;;;5.70;99.90;;;;;;5015834;28;20041;-81
2022/01/22 12:51:14;;;;;;;8.38;1.40;;;5.70;99.90;;;;;;5016221;28;20464;-78
2022/01/22 12:53:47;;;;;;;8.35;1.48;;;5.90;99.90;;;;;;5015744;28;20077;-81
2022/01/22 12:56:49;;;;;;;12.45;1.70;;;5.70;99.90;;;;;;5016155;28;20415;-79
2022/01/22 12:59:10;;;;;;;11.15;1.33;;;5.90;99.90;;;;;;5031842;28;20061;-79
2022/01/22 13:01:42;;;;;;;6.65;1.63;;;5.80;99.90;;;;;;5032273;28;20124;-79
2022/01/22 13:04:08;;;;;;;4.50;1.00;;;6.00;99.90;;;;;;5032133;28;20124;-81
2022/01/22 13:06:49;;;;;;;7.05;1.35;;;5.60;99.90;;;;;;5015699;28;20049;-80
2022/01/22 13:09:15;;;;;;;6.60;1.10;;;5.70;99.90;;;;;;5031258;28;20045;-79
2022/01/22 13:11:48;;;;;;;6.88;1.75;;;5.60;99.90;;;;;;5014482;28;20037;-78
2022/01/22 13:14:25;;;;;;;8.00;1.50;;;5.70;99.90;;;;;;5031530;28;20045;-81
2022/01/22 13:16:54;;;;;;;5.65;1.30;;;5.60;99.90;;;;;;5031602;28;20484;-78
2022/01/22 13:19:21;;;;;;;9.10;1.45;;;5.60;99.90;;;;;;5014268;28;20045;-81
2022/01/22 13:21:53;;;;;;;8.45;1.27;;;5.60;99.90;;;;;;5014717;28;20047;-78
2022/01/22 13:24:22;;;;;;;7.75;1.52;;;5.60;99.90;;;;;;5031624;28;20051;-81
2022/01/22 13:27:07;;;;;;;11.23;1.90;;;5.70;99.90;;;;;;5014556;28;20084;-79
2022/01/22 13:29:39;;;;;;;4.90;1.08;;;5.80;99.90;;;;;;5011903;28;20046;-79
2022/01/22 13:32:15;;;;;;;4.70;1.25;;;5.70;99.90;;;;;;5027466;28;20059;-79
2022/01/22 13:49:06;;;;;;;12.20;1.40;;;5.60;99.90;;;;;;5030423;28;20055;-79
2022/01/22 13:51:32;;;;;;;8.95;1.75;;;5.70;99.90;;;;;;5031632;28;20507;-79
2022/01/22 13:53:59;;;;;;;15.00;2.15;;;5.80;99.90;;;;;;5030972;28;20142;-79
2022/01/22 13:56:49;;;;;;;7.80;2.42;;;5.70;99.90;;;;;;5014729;28;20192;-80
2022/01/22 13:59:26;;;;;;;10.07;2.25;;;5.60;99.90;;;;;;5014803;28;20443;-81
2022/01/22 14:02:16;;;;;;;9.02;0.85;;;5.70;99.90;;;;;;5015347;28;20545;-81
2022/01/22 14:04:55;;;;;;;9.52;1.42;;;5.60;99.90;;;;;;5013542;28;20034;-81
2022/01/22 14:07:27;;;;;;;6.90;0.80;;;5.60;99.90;;;;;;5011624;28;20057;-79
2022/01/22 14:10:20;;;;;;;10.45;1.33;;;5.60;99.90;;;;;;5029677;28;20041;-81
2022/01/22 14:12:54;;;;;;;6.90;1.50;;;5.70;99.90;;;;;;5028880;28;20061;-79
2022/01/22 14:15:27;;;;;;;7.75;1.55;;;5.60;99.90;;;;;;5030469;28;20440;-81
2022/01/22 14:18:27;;;;;;;5.95;0.90;;;5.60;99.90;;;;;;5030806;28;20085;-81
2022/01/22 14:21:16;;;;;;;8.73;1.38;;;5.70;99.90;;;;;;5026296;28;20042;-78
2022/01/22 14:23:42;;;;;;;7.05;0.98;;;5.60;99.90;;;;;;5030771;28;20403;-81
2022/01/22 14:26:32;;;;;;;6.82;1.48;;;5.60;99.90;;;;;;5014487;28;20049;-81
2022/01/22 14:29:07;;;;;;;3.80;0.90;;;5.60;99.90;;;;;;5030528;28;20049;-81
2022/01/22 14:31:47;;;;;;;5.70;0.98;;;5.60;99.90;;;;;;5014412;28;20060;-79
2022/01/22 14:34:34;;;;;;;4.57;0.93;;;5.60;99.90;;;;;;5029926;28;20057;-81
2022/01/22 14:37:02;;;;;;;8.13;1.05;;;5.60;99.90;;;;;;5028258;28;20073;-81
2022/01/22 14:45:30;;;;;;;6.85;0.85;;;5.80;99.90;;;;;;5018786;28;20076;-79
2022/01/22 14:47:58;;;;;;;9.73;1.60;;;5.80;99.90;;;;;;5013784;28;20053;-81
2022/01/22 14:50:25;;;;;;;4.40;0.77;;;5.80;99.90;;;;;;5032418;28;20496;-81
2022/01/22 14:52:59;;;;;;;4.03;0.93;;;5.90;99.90;;;;;;5034321;28;20056;-79
2022/01/22 14:55:26;;;;;;;10.02;1.70;;;5.90;99.90;;;;;;5017488;28;20511;-81
2022/01/22 14:57:53;;;;;;;5.93;0.90;;;5.90;99.90;;;;;;5001469;28;20049;-79
2022/01/22 15:00:20;;;;;;;6.95;0.77;;;5.90;99.90;;;;;;5001895;28;20467;-79
2022/01/22 15:02:47;;;;;;;4.30;0.88;;;5.80;99.90;;;;;;5034355;28;20292;-81
2022/01/22 15:05:14;;;;;;;3.80;0.65;;;5.90;99.90;;;;;;5034445;28;20468;-79
2022/01/22 15:07:45;;;;;;;10.02;1.10;;;5.70;99.90;;;;;;5034353;28;20045;-81
2022/01/22 15:10:13;;;;;;;4.60;1.38;;;5.70;99.90;;;;;;5034147;28;20041;-79
2022/01/22 15:12:39;;;;;;;3.33;0.47;;;5.60;99.90;;;;;;5017829;28;20053;-79
2022/01/22 15:15:07;;;;;;;4.97;0.57;;;5.60;99.90;;;;;;5034078;28;20094;-79